createdAt,value
2022-08-01T00:00:59.845Z,5.50
2022-08-01T00:05:08.938Z,5.60
2022-08-01T00:09:23.628Z,5.90
2022-08-01T00:13:32.181Z,6.10
2022-08-01T00:17:40.229Z,5.40
2022-08-01T00:21:51.813Z,5.90
2022-08-01T00:26:00.784Z,6.10
2022-08-01T00:30:14.634Z,5.80
2022-08-01T00:34:22.661Z,5.90
2022-08-01T00:38:32.461Z,5.80
2022-08-01T00:42:43.449Z,6.40
2022-08-01T00:46:51.237Z,5.60
2022-08-01T00:50:58.895Z,5.70
2022-08-01T00:55:07.445Z,6.20
2022-08-01T00:59:15.418Z,6.20
2022-08-01T01:03:26.289Z,6.10
2022-08-01T01:07:49.712Z,5.50
2022-08-01T01:12:08.745Z,6.30
2022-08-01T01:16:18.246Z,6.30
2022-08-01T01:20:29.742Z,6.00
2022-08-01T01:24:47.719Z,6.30
2022-08-01T01:29:11.186Z,6.70
2022-08-01T01:33:20.067Z,6.60
2022-08-01T01:37:29.552Z,6.20
2022-08-01T01:41:38.096Z,6.50
2022-08-01T01:45:46.046Z,7.80
2022-08-01T01:49:53.915Z,6.80
2022-08-01T01:54:01.994Z,6.80
2022-08-01T01:58:10.862Z,7.40
2022-08-01T02:02:19.397Z,7.40
2022-08-01T02:06:28.070Z,7.00
2022-08-01T02:10:39.587Z,6.90
2022-08-01T02:14:48.301Z,7.70
2022-08-01T02:18:56.410Z,7.10
2022-08-01T02:23:07.226Z,6.80
2022-08-01T02:27:18.108Z,6.70
2022-08-01T02:31:27.197Z,7.00
2022-08-01T02:36:30.375Z,6.40
2022-08-01T02:40:06.454Z,6.90
2022-08-01T02:44:22.663Z,6.90
2022-08-01T02:48:31.110Z,6.10
2022-08-01T02:52:40.794Z,6.30
2022-08-01T02:56:49.325Z,6.50
2022-08-01T03:00:57.938Z,6.70
2022-08-01T03:05:07.664Z,6.10
2022-08-01T03:09:16.811Z,6.60
2022-08-01T03:13:26.328Z,6.90
2022-08-01T03:17:34.888Z,7.30
2022-08-01T03:21:43.661Z,6.80
2022-08-01T03:25:51.870Z,6.30
2022-08-01T03:30:02.326Z,6.90
2022-08-01T03:34:11.251Z,6.40
2022-08-01T03:38:22.042Z,7.00
2022-08-01T03:42:34.302Z,7.10
2022-08-01T03:46:47.996Z,7.30
2022-08-01T03:50:56.743Z,7.60
2022-08-01T03:55:08.527Z,7.00
2022-08-01T03:59:16.758Z,7.30
2022-08-01T04:03:25.342Z,8.10
2022-08-01T04:07:37.529Z,7.40
2022-08-01T04:11:45.278Z,7.60
2022-08-01T04:15:53.296Z,7.70
2022-08-01T04:20:02.488Z,7.70
2022-08-01T04:24:15.368Z,6.60
2022-08-01T04:28:25.041Z,7.40
2022-08-01T04:32:34.687Z,7.90
2022-08-01T04:36:43.215Z,7.00
2022-08-01T04:40:51.687Z,7.10
2022-08-01T04:44:59.404Z,7.60
2022-08-01T04:49:10.284Z,7.50
2022-08-01T04:53:23.152Z,7.40
2022-08-01T04:57:30.669Z,7.20
2022-08-01T05:01:38.659Z,6.90
2022-08-01T05:05:46.320Z,6.90
2022-08-01T05:09:54.479Z,6.60
2022-08-01T05:14:02.105Z,6.50
2022-08-01T05:18:09.833Z,7.00
2022-08-01T05:22:18.522Z,6.50
2022-08-01T05:26:26.610Z,8.30
2022-08-01T05:30:34.024Z,6.30
2022-08-01T05:34:41.679Z,6.60
2022-08-01T05:38:49.379Z,6.00
2022-08-01T05:42:56.957Z,6.00
2022-08-01T05:47:05.358Z,6.20
2022-08-01T05:51:12.980Z,6.80
2022-08-01T05:55:21.343Z,5.30
2022-08-01T05:59:28.772Z,5.60
2022-08-01T06:03:36.170Z,5.90
2022-08-01T06:07:45.124Z,5.40
2022-08-01T06:11:52.531Z,5.30
2022-08-01T06:16:00.182Z,4.80
2022-08-01T06:20:09.788Z,5.70
2022-08-01T06:24:17.468Z,4.90
2022-08-01T06:28:25.292Z,5.30
2022-08-01T06:32:32.665Z,5.10
2022-08-01T06:36:40.382Z,5.40
2022-08-01T06:40:47.908Z,4.20
2022-08-01T06:44:55.324Z,4.00
2022-08-01T06:49:02.868Z,4.30
2022-08-01T06:53:10.275Z,3.80
2022-08-01T06:57:18.752Z,3.80
2022-08-01T07:01:26.059Z,3.50
2022-08-01T07:05:33.495Z,3.20
2022-08-01T07:09:43.654Z,3.30
2022-08-01T07:13:51.307Z,3.70
2022-08-01T07:18:02.761Z,3.50
2022-08-01T07:22:13.733Z,3.30
2022-08-01T07:26:31.125Z,3.50
2022-08-01T07:30:38.846Z,3.30
2022-08-01T07:34:46.393Z,3.80
2022-08-01T07:38:54.275Z,3.40
2022-08-01T07:43:02.435Z,3.80
2022-08-01T07:47:10.858Z,3.30
2022-08-01T07:51:19.800Z,3.50
2022-08-01T07:55:27.461Z,3.50
2022-08-01T07:59:35.677Z,3.60
2022-08-01T08:03:45.700Z,3.40
2022-08-01T08:07:54.786Z,3.30
2022-08-01T08:12:02.197Z,3.40
2022-08-01T08:16:10.204Z,3.60
2022-08-01T08:20:18.137Z,3.80
2022-08-01T08:24:27.389Z,3.90
2022-08-01T08:28:34.886Z,4.40
2022-08-01T08:32:43.187Z,3.90
2022-08-01T08:36:51.095Z,3.90
2022-08-01T08:41:00.105Z,4.40
2022-08-01T08:45:11.912Z,4.00
2022-08-01T08:49:23.535Z,3.80
2022-08-01T08:53:34.741Z,4.30
2022-08-01T08:57:47.225Z,4.20
2022-08-01T09:01:55.067Z,4.20
2022-08-01T09:06:02.654Z,3.80
2022-08-01T09:10:12.114Z,4.00
2022-08-01T09:14:25.294Z,4.30
2022-08-01T09:18:36.710Z,4.10
2022-08-01T09:22:47.698Z,4.00
2022-08-01T09:26:55.898Z,4.10
2022-08-01T09:31:10.177Z,3.90
2022-08-01T09:35:36.240Z,4.30
2022-08-01T09:39:46.477Z,3.80
2022-08-01T09:43:54.651Z,3.70
2022-08-01T09:48:11.263Z,3.80
2022-08-01T09:52:20.367Z,3.50
2022-08-01T09:56:40.520Z,3.60
2022-08-01T10:01:02.584Z,3.50
2022-08-01T10:05:20.812Z,3.70
2022-08-01T10:09:40.174Z,3.60
2022-08-01T10:13:48.785Z,3.40
2022-08-01T10:17:59.458Z,3.60
2022-08-01T10:22:10.332Z,4.00
2022-08-01T10:26:20.121Z,3.70
2022-08-01T10:30:31.339Z,4.00
2022-08-01T10:34:39.679Z,4.20
2022-08-01T10:38:53.747Z,4.00
2022-08-01T10:43:02.395Z,3.90
2022-08-01T10:47:22.484Z,4.20
2022-08-01T10:51:51.325Z,4.00
2022-08-01T10:56:13.253Z,3.80
2022-08-01T11:00:25.386Z,3.90
2022-08-01T11:04:47.062Z,3.80
2022-08-01T11:08:57.478Z,3.80
2022-08-01T11:13:08.801Z,4.00
2022-08-01T11:17:42.121Z,3.40
2022-08-01T11:22:05.994Z,3.40
2022-08-01T11:26:18.380Z,3.60
2022-08-01T11:30:38.146Z,3.50
2022-08-01T11:34:59.843Z,3.50
2022-08-01T11:39:21.964Z,3.40
2022-08-01T11:43:30.814Z,3.30
2022-08-01T11:47:50.901Z,3.40
2022-08-01T11:52:05.474Z,3.00
2022-08-01T11:56:13.446Z,3.40
2022-08-01T12:00:27.019Z,3.30
2022-08-01T12:04:53.982Z,3.40
2022-08-01T12:09:19.274Z,3.00
2022-08-01T12:13:27.224Z,3.60
2022-08-01T12:17:36.708Z,3.10
2022-08-01T12:21:44.771Z,3.10
2022-08-01T12:25:55.798Z,2.90
2022-08-01T12:30:04.349Z,2.50
2022-08-01T12:34:30.808Z,2.80
2022-08-01T12:38:38.356Z,3.20
2022-08-01T12:42:47.451Z,3.40
2022-08-01T12:46:55.539Z,3.50
2022-08-01T12:51:03.761Z,3.50
2022-08-01T12:55:17.182Z,4.00
2022-08-01T12:59:27.578Z,4.00
2022-08-01T13:03:35.233Z,3.80
2022-08-01T13:07:46.094Z,3.80
2022-08-01T13:12:04.431Z,3.40
2022-08-01T13:16:18.185Z,3.40
2022-08-01T13:20:38.127Z,3.10
2022-08-01T13:24:46.011Z,3.20
2022-08-01T13:29:09.096Z,3.80
2022-08-01T13:33:18.784Z,3.70
2022-08-01T13:37:29.434Z,3.90
2022-08-01T13:41:39.515Z,4.10
2022-08-01T13:45:47.787Z,4.60
2022-08-01T13:49:55.637Z,4.00
2022-08-01T13:54:05.399Z,3.60
2022-08-01T13:58:14.077Z,3.70
2022-08-01T14:02:24.392Z,3.30
2022-08-01T14:06:32.039Z,2.80
2022-08-01T14:10:40.059Z,2.90
2022-08-01T14:14:47.671Z,2.50
2022-08-01T14:18:55.512Z,2.40
2022-08-01T14:23:03.289Z,1.70
2022-08-01T14:27:11.099Z,2.20
2022-08-01T14:31:18.852Z,2.20
2022-08-01T14:35:26.403Z,2.20
2022-08-01T14:39:34.017Z,1.90
2022-08-01T14:43:42.290Z,2.00
2022-08-01T14:47:50.351Z,2.00
2022-08-01T14:51:57.714Z,2.10
2022-08-01T14:56:05.270Z,2.10
2022-08-01T15:00:15.279Z,2.30
2022-08-01T15:04:23.538Z,2.10
2022-08-01T15:08:32.998Z,1.90
2022-08-01T15:12:50.247Z,2.10
2022-08-01T15:16:58.466Z,2.40
2022-08-01T15:21:05.868Z,2.30
2022-08-01T15:25:13.882Z,2.10
2022-08-01T15:29:21.418Z,1.80
2022-08-01T15:33:30.923Z,1.60
2022-08-01T15:37:43.119Z,1.60
2022-08-01T15:41:51.100Z,1.90
2022-08-01T15:46:02.148Z,1.60
2022-08-01T15:50:10.685Z,1.60
2022-08-01T15:54:18.427Z,1.90
2022-08-01T15:58:26.234Z,1.70
2022-08-01T16:02:34.444Z,1.40
2022-08-01T16:06:42.501Z,1.60
2022-08-01T16:10:49.883Z,1.40
2022-08-01T16:14:59.639Z,1.20
2022-08-01T16:19:07.793Z,1.10
2022-08-01T16:23:16.082Z,1.00
2022-08-01T16:27:27.149Z,1.00
2022-08-01T16:31:50.754Z,0.90
2022-08-01T16:36:03.395Z,0.90
2022-08-01T16:40:13.435Z,0.70
2022-08-01T16:44:28.665Z,0.90
2022-08-01T16:48:44.740Z,0.80
2022-08-01T16:52:52.449Z,0.80
2022-08-01T16:57:08.367Z,0.90
2022-08-01T17:01:56.155Z,0.90
2022-08-01T17:05:47.355Z,1.10
2022-08-01T17:09:54.995Z,0.80
2022-08-01T17:14:02.559Z,1.10
2022-08-01T17:18:11.558Z,1.10
2022-08-01T17:22:19.539Z,1.30
2022-08-01T17:26:26.943Z,1.30
2022-08-01T17:30:34.632Z,1.50
2022-08-01T17:34:42.381Z,1.40
2022-08-01T17:38:50.081Z,1.50
2022-08-01T17:42:57.477Z,1.70
2022-08-01T17:47:06.450Z,1.60
2022-08-01T17:51:18.120Z,1.40
2022-08-01T17:55:53.570Z,1.50
2022-08-01T17:59:56.016Z,1.90
2022-08-01T18:04:05.947Z,1.60
2022-08-01T18:08:13.921Z,1.60
2022-08-01T18:12:24.273Z,1.80
2022-08-01T18:16:32.936Z,1.80
2022-08-01T18:20:40.177Z,2.00
2022-08-01T18:24:47.632Z,2.00
2022-08-01T18:28:55.277Z,2.10
2022-08-01T18:33:06.594Z,2.40
2022-08-01T18:37:16.988Z,3.10
2022-08-01T18:41:27.264Z,2.80
2022-08-01T18:45:39.512Z,2.70
2022-08-01T18:49:50.138Z,2.60
2022-08-01T18:53:58.140Z,2.40
2022-08-01T18:58:05.911Z,2.40
2022-08-01T19:02:13.201Z,2.60
2022-08-01T19:06:20.909Z,2.90
2022-08-01T19:10:29.111Z,2.80
2022-08-01T19:14:36.324Z,3.10
2022-08-01T19:18:44.380Z,2.90
2022-08-01T19:22:54.104Z,3.10
2022-08-01T19:27:05.073Z,2.70
2022-08-01T19:31:16.800Z,2.70
2022-08-01T19:35:25.474Z,3.10
2022-08-01T19:39:33.060Z,2.80
2022-08-01T19:43:44.798Z,2.80
2022-08-01T19:47:56.585Z,2.70
2022-08-01T19:52:06.362Z,2.90
2022-08-01T19:56:14.613Z,3.10
2022-08-01T20:00:28.344Z,3.70
2022-08-01T20:04:37.000Z,3.00
2022-08-01T20:08:44.857Z,3.00
2022-08-01T20:12:52.501Z,3.00
2022-08-01T20:17:02.062Z,2.70
2022-08-01T20:21:10.451Z,2.80
2022-08-01T20:25:19.993Z,3.10
2022-08-01T20:29:30.903Z,3.00
2022-08-01T20:33:43.017Z,3.00
2022-08-01T20:38:05.464Z,3.00
2022-08-01T20:42:15.466Z,3.20
2022-08-01T20:46:27.104Z,3.60
2022-08-01T20:50:54.803Z,3.40
2022-08-01T20:55:02.458Z,3.60
2022-08-01T20:59:40.151Z,3.30
2022-08-01T21:03:50.713Z,3.90
2022-08-01T21:08:04.527Z,4.20
2022-08-01T21:12:16.467Z,3.80
2022-08-01T21:16:30.347Z,3.80
2022-08-01T21:20:41.353Z,3.50
2022-08-01T21:24:58.876Z,3.50
2022-08-01T21:29:08.843Z,3.60
2022-08-01T21:33:16.896Z,3.20
2022-08-01T21:37:25.665Z,3.70
2022-08-01T21:41:56.255Z,3.50
2022-08-01T21:46:01.468Z,3.50
2022-08-01T21:50:11.230Z,3.60
2022-08-01T21:54:25.024Z,4.30
2022-08-01T21:58:40.182Z,3.80
2022-08-01T22:02:53.465Z,3.70
2022-08-01T22:07:03.110Z,3.40
2022-08-01T22:11:13.624Z,4.00
2022-08-01T22:15:25.498Z,4.20
2022-08-01T22:19:55.570Z,3.70
2022-08-01T22:24:05.324Z,4.30
2022-08-01T22:28:18.411Z,4.10
2022-08-01T22:32:28.801Z,3.90
2022-08-01T22:36:37.456Z,4.60
2022-08-01T22:40:50.459Z,3.90
2022-08-01T22:45:02.532Z,4.30
2022-08-01T22:49:17.394Z,4.10
2022-08-01T22:53:29.775Z,3.90
2022-08-01T22:57:40.048Z,3.90
2022-08-01T23:01:53.031Z,4.30
2022-08-01T23:06:05.594Z,4.40
2022-08-01T23:10:13.806Z,4.20
2022-08-01T23:14:24.761Z,3.60
2022-08-01T23:18:33.556Z,3.60
2022-08-01T23:22:41.029Z,3.60
2022-08-01T23:26:49.729Z,4.00
2022-08-01T23:30:57.943Z,4.00
2022-08-01T23:35:05.968Z,4.00
2022-08-01T23:39:14.298Z,3.70
2022-08-01T23:43:21.766Z,3.40
2022-08-01T23:47:29.454Z,3.60
2022-08-01T23:51:38.213Z,3.30
2022-08-01T23:55:46.128Z,3.50
2022-08-01T23:59:54.216Z,3.80
